Time;durP1;ratioP1;P1;durP2;ratioP2;P2;SDS_P1;SDS_P2;PMS_P1;PMS_P2;Temp;Humidity;BMP_temperature;BMP_pressure;BME280_temperature;BME280_humidity;BME280_pressure;Samples;Min_cycle;Max_cycle;Signal;HPM_P1;HPM_P2
2023/03/13 00:01:37;;;;;;;;;;;;;;;1.17;57.81;100578.90;108107;1254;61114;-63
2023/03/13 00:04:06;;;;;;;;;;;;;;;1.17;57.86;100582.02;107982;1254;61126;-65
2023/03/13 00:06:42;;;;;;;;;;;;;;;1.17;58.14;100588.45;108179;1256;73629;-64
2023/03/13 00:09:11;;;;;;;;;;;;;;;1.14;58.06;100597.48;108210;1254;71899;-63
2023/03/13 00:11:41;;;;;;;;;;;;;;;1.13;58.00;100602.92;108119;1254;73372;-64
2023/03/13 00:14:09;;;;;;;;;;;;;;;1.13;57.94;100601.88;108165;1254;62224;-64
2023/03/13 00:16:40;;;;;;;;;;;;;;;1.12;58.10;100601.99;108183;1254;61099;-64
2023/03/13 00:19:11;;;;;;;;;;;;;;;1.09;58.16;100607.55;108100;1254;75394;-64
2023/03/13 00:21:40;;;;;;;;;;;;;;;1.07;58.16;100606.20;108089;1258;72645;-64
2023/03/13 00:24:17;;;;;;;;;;;;;;;1.05;58.31;100606.11;108047;1259;73618;-66
2023/03/13 00:26:45;;;;;;;;;;;;;;;1.05;58.05;100608.41;108041;1260;59633;-62
2023/03/13 00:29:13;;;;;;;;;;;;;;;1.04;58.13;100609.95;108085;1254;61222;-63
2023/03/13 00:31:46;;;;;;;;;;;;;;;1.04;58.10;100606.70;108051;1254;74971;-63
2023/03/13 00:34:16;;;;;;;;;;;;;;;1.00;58.02;100606.13;107999;1254;73033;-63
2023/03/13 00:36:45;;;;;;;;;;;;;;;0.98;58.50;100605.61;108184;1258;70588;-64
2023/03/13 00:39:14;;;;;;;;;;;;;;;0.98;58.46;100606.55;108078;1254;61343;-62
2023/03/13 00:41:44;;;;;;;;;;;;;;;0.96;58.66;100604.40;108095;1254;61090;-63
2023/03/13 00:44:13;;;;;;;;;;;;;;;0.94;58.60;100607.02;108111;1254;72525;-64
2023/03/13 00:46:41;;;;;;;;;;;;;;;0.93;58.78;100606.97;108132;1254;72581;-63
2023/03/13 00:49:10;;;;;;;;;;;;;;;0.91;58.80;100604.96;108034;1254;72805;-64
2023/03/13 00:51:40;;;;;;;;;;;;;;;0.90;58.74;100602.26;108108;1254;61121;-63
2023/03/13 00:54:09;;;;;;;;;;;;;;;0.91;58.69;100597.77;108104;1257;60374;-63
2023/03/13 00:56:41;;;;;;;;;;;;;;;0.93;58.68;100594.15;108091;1254;75901;-63
2023/03/13 00:59:09;;;;;;;;;;;;;;;0.94;58.64;100595.48;108172;1254;73627;-62
2023/03/13 01:01:37;;;;;;;;;;;;;;;0.95;58.58;100597.75;108115;1257;72812;-65
2023/03/13 01:04:07;;;;;;;;;;;;;;;0.92;58.67;100603.52;108102;1254;61245;-63
2023/03/13 01:06:36;;;;;;;;;;;;;;;0.91;58.57;100603.72;108088;1254;61115;-63
2023/03/13 01:09:06;;;;;;;;;;;;;;;0.89;58.61;100603.63;108078;1254;75852;-63
2023/03/13 01:11:36;;;;;;;;;;;;;;;0.87;58.46;100600.95;108149;1254;73384;-62
2023/03/13 01:14:05;;;;;;;;;;;;;;;0.84;58.55;100604.92;108087;1254;72045;-63
2023/03/13 01:16:36;;;;;;;;;;;;;;;0.83;58.67;100601.20;108093;1254;62358;-64
2023/03/13 01:19:11;;;;;;;;;;;;;;;0.81;58.48;100602.20;108109;1254;61231;-64
2023/03/13 01:21:42;;;;;;;;;;;;;;;0.79;58.62;100601.08;108024;1254;75920;-63
2023/03/13 01:24:10;;;;;;;;;;;;;;;0.74;58.34;100601.85;108136;1254;72692;-63
2023/03/13 01:26:41;;;;;;;;;;;;;;;0.72;58.38;100604.36;108074;1254;73648;-64
2023/03/13 01:29:12;;;;;;;;;;;;;;;0.71;58.17;100603.29;108107;1254;61211;-63
2023/03/13 01:31:40;;;;;;;;;;;;;;;0.69;58.31;100607.30;108117;1254;61225;-64
2023/03/13 01:34:14;;;;;;;;;;;;;;;0.66;58.41;100609.60;108070;1254;74825;-64
2023/03/13 01:36:45;;;;;;;;;;;;;;;0.62;58.55;100611.23;108110;1254;73662;-63
2023/03/13 01:39:13;;;;;;;;;;;;;;;0.60;58.61;100615.79;108026;1259;73776;-64
2023/03/13 01:41:48;;;;;;;;;;;;;;;0.59;58.66;100618.73;108009;1254;61224;-64
2023/03/13 01:44:39;;;;;;;;;;;;;;;0.55;58.76;100622.73;108110;1254;61151;-64
2023/03/13 01:47:08;;;;;;;;;;;;;;;0.52;58.75;100633.65;107999;1254;73246;-62
2023/03/13 01:49:59;;;;;;;;;;;;;;;0.48;59.04;100639.89;108051;1255;72233;-63
2023/03/13 01:52:48;;;;;;;;;;;;;;;0.45;59.17;100646.18;108097;1254;73605;-63
2023/03/13 01:55:31;;;;;;;;;;;;;;;0.42;59.10;100653.39;108143;1254;61206;-63
2023/03/13 01:57:59;;;;;;;;;;;;;;;0.40;59.27;100658.19;107938;1257;61116;-62
2023/03/13 02:00:32;;;;;;;;;;;;;;;0.37;59.26;100660.02;107963;1254;73919;-63
2023/03/13 02:03:06;;;;;;;;;;;;;;;0.34;59.25;100665.52;108053;1255;73736;-65
2023/03/13 02:05:35;;;;;;;;;;;;;;;0.29;59.28;100668.87;108058;1254;70998;-63
2023/03/13 02:08:07;;;;;;;;;;;;;;;0.27;59.32;100669.85;108015;1254;61573;-63
2023/03/13 02:10:40;;;;;;;;;;;;;;;0.27;59.73;100678.66;107897;1254;61114;-63
2023/03/13 02:13:17;;;;;;;;;;;;;;;0.25;59.74;100680.17;107945;1254;76960;-64
2023/03/13 02:15:49;;;;;;;;;;;;;;;0.26;59.69;100681.72;108059;1260;71888;-64
2023/03/13 02:18:24;;;;;;;;;;;;;;;0.26;59.82;100681.23;108150;1254;73730;-63
2023/03/13 02:21:10;;;;;;;;;;;;;;;0.25;59.93;100687.61;107982;1254;61293;-63
2023/03/13 02:23:52;;;;;;;;;;;;;;;0.25;59.83;100690.60;108137;1256;61219;-63
2023/03/13 02:26:23;;;;;;;;;;;;;;;0.27;59.57;100685.94;108070;1254;73271;-63
2023/03/13 02:28:56;;;;;;;;;;;;;;;0.26;59.68;100687.98;108087;1254;72958;-63
2023/03/13 02:31:30;;;;;;;;;;;;;;;0.27;59.63;100694.02;108006;1254;72894;-63
2023/03/13 02:34:10;;;;;;;;;;;;;;;0.26;59.44;100695.38;108065;1254;61179;-63
2023/03/13 02:36:55;;;;;;;;;;;;;;;0.25;59.36;100697.60;108133;1254;61115;-63
2023/03/13 02:39:26;;;;;;;;;;;;;;;0.23;59.32;100697.91;108124;1254;76435;-63
2023/03/13 02:41:58;;;;;;;;;;;;;;;0.22;59.55;100701.52;107958;1258;72978;-63
2023/03/13 02:44:28;;;;;;;;;;;;;;;0.20;59.39;100702.69;107963;1258;72909;-63
2023/03/13 02:46:57;;;;;;;;;;;;;;;0.18;59.49;100702.24;107882;1257;61162;-63
2023/03/13 02:49:28;;;;;;;;;;;;;;;0.16;59.49;100704.77;108064;1254;61228;-63
2023/03/13 02:52:10;;;;;;;;;;;;;;;0.15;59.62;100708.89;108082;1254;75232;-65
2023/03/13 02:54:44;;;;;;;;;;;;;;;0.13;59.53;100715.25;108133;1259;73086;-66
2023/03/13 02:57:17;;;;;;;;;;;;;;;0.11;59.66;100718.73;108000;1254;72639;-63
2023/03/13 02:59:58;;;;;;;;;;;;;;;0.07;59.64;100714.13;108007;1254;61375;-64
2023/03/13 03:02:30;;;;;;;;;;;;;;;0.04;59.45;100714.98;108116;1254;61260;-64
2023/03/13 03:04:59;;;;;;;;;;;;;;;0.02;59.72;100717.50;108052;1254;73757;-63
2023/03/13 03:08:02;;;;;;;;;;;;;;;-0.00;59.56;100715.66;108420;1254;71409;-63
2023/03/13 03:10:31;;;;;;;;;;;;;;;-0.02;59.67;100722.19;108100;1254;72619;-63
2023/03/13 03:13:02;;;;;;;;;;;;;;;-0.04;59.73;100730.63;108145;1254;61089;-64
2023/03/13 03:15:32;;;;;;;;;;;;;;;-0.06;59.79;100733.96;108126;1254;59332;-61
2023/03/13 03:18:00;;;;;;;;;;;;;;;-0.09;59.71;100737.35;108080;1254;75249;-62
2023/03/13 03:20:28;;;;;;;;;;;;;;;-0.14;59.98;100735.31;108085;1254;72528;-62
2023/03/13 03:22:57;;;;;;;;;;;;;;;-0.18;60.01;100740.15;108166;1254;71471;-63
2023/03/13 03:25:26;;;;;;;;;;;;;;;-0.24;60.09;100739.07;108124;1259;61191;-63
2023/03/13 03:27:55;;;;;;;;;;;;;;;-0.28;60.26;100740.14;108161;1257;61116;-63
2023/03/13 03:30:24;;;;;;;;;;;;;;;-0.33;60.42;100741.23;108126;1254;72545;-63
2023/03/13 03:32:53;;;;;;;;;;;;;;;-0.36;60.54;100747.73;108161;1254;73872;-63
2023/03/13 03:35:22;;;;;;;;;;;;;;;-0.42;60.53;100757.17;108128;1254;72710;-63
2023/03/13 03:37:52;;;;;;;;;;;;;;;-0.47;60.60;100759.65;108100;1254;61243;-63
2023/03/13 03:40:21;;;;;;;;;;;;;;;-0.53;60.91;100763.84;108143;1254;61138;-63
2023/03/13 03:42:51;;;;;;;;;;;;;;;-0.56;60.97;100770.70;108175;1254;74740;-63
2023/03/13 03:45:39;;;;;;;;;;;;;;;-0.60;61.13;100771.73;108020;1254;74404;-63
2023/03/13 03:48:09;;;;;;;;;;;;;;;-0.64;61.19;100772.47;108090;1254;73358;-63
2023/03/13 03:50:37;;;;;;;;;;;;;;;-0.66;61.35;100776.63;108154;1254;61912;-63
2023/03/13 03:53:12;;;;;;;;;;;;;;;-0.68;61.43;100784.88;108076;1254;61353;-63
2023/03/13 03:55:41;;;;;;;;;;;;;;;-0.70;61.52;100789.96;108090;1254;75085;-63
2023/03/13 03:58:09;;;;;;;;;;;;;;;-0.72;61.71;100796.36;108064;1254;72045;-63
2023/03/13 04:00:56;;;;;;;;;;;;;;;-0.75;61.80;100803.53;108092;1254;74160;-63
2023/03/13 04:03:25;;;;;;;;;;;;;;;-0.78;61.99;100808.52;108077;1254;61110;-63
2023/03/13 04:05:53;;;;;;;;;;;;;;;-0.80;61.93;100818.18;108107;1254;61420;-63
2023/03/13 04:08:24;;;;;;;;;;;;;;;-0.83;62.09;100820.64;108155;1254;74105;-64
2023/03/13 04:10:59;;;;;;;;;;;;;;;-0.85;62.25;100820.95;108044;1254;72924;-62
2023/03/13 04:13:29;;;;;;;;;;;;;;;-0.87;62.43;100826.08;108109;1258;71629;-62
2023/03/13 04:15:58;;;;;;;;;;;;;;;-0.89;62.80;100829.06;108056;1254;61952;-63
2023/03/13 04:18:27;;;;;;;;;;;;;;;-0.90;62.64;100830.35;107863;1254;61353;-63
2023/03/13 04:21:00;;;;;;;;;;;;;;;-0.89;62.74;100835.91;108105;1254;74875;-64
2023/03/13 04:23:29;;;;;;;;;;;;;;;-0.89;62.83;100832.57;107971;1254;70812;-63
2023/03/13 04:25:59;;;;;;;;;;;;;;;-0.88;63.18;100834.24;107978;1254;73613;-63
2023/03/13 04:28:32;;;;;;;;;;;;;;;-0.87;63.23;100834.95;108017;1254;61259;-64
2023/03/13 04:31:02;;;;;;;;;;;;;;;-0.81;63.48;100834.66;108064;1254;61185;-64
2023/03/13 04:33:54;;;;;;;;;;;;;;;-0.73;63.38;100838.55;107709;1254;73946;-63
2023/03/13 04:36:55;;;;;;;;;;;;;;;-0.66;63.55;100838.14;107876;1257;72979;-62
2023/03/13 04:39:53;;;;;;;;;;;;;;;-0.59;63.52;100842.61;107982;1254;72861;-63
2023/03/13 04:42:40;;;;;;;;;;;;;;;-0.52;63.60;100850.31;103895;1254;61259;-63
2023/03/13 04:45:37;;;;;;;;;;;;;;;-0.45;63.56;100852.33;107997;1254;73347;-64
2023/03/13 04:48:41;;;;;;;;;;;;;;;-0.37;63.56;100853.02;107509;1261;73089;-63
2023/03/13 04:51:29;;;;;;;;;;;;;;;-0.30;63.52;100854.95;107998;1254;73961;-63
2023/03/13 04:54:16;;;;;;;;;;;;;;;-0.22;63.56;100859.66;108092;1254;61095;-63
2023/03/13 04:56:54;;;;;;;;;;;;;;;-0.16;63.55;100867.00;108146;1253;61170;-62
2023/03/13 05:00:09;;;;;;;;;;;;;;;-0.09;63.68;100868.48;107519;1263;75236;-63
2023/03/13 05:03:01;;;;;;;;;;;;;;;-0.05;63.50;100867.27;107720;1254;73389;-64
2023/03/13 05:05:53;;;;;;;;;;;;;;;0.00;63.35;100874.23;107908;1258;73033;-63
2023/03/13 05:08:41;;;;;;;;;;;;;;;0.06;63.50;100877.17;107911;1256;61141;-63
2023/03/13 05:11:31;;;;;;;;;;;;;;;0.14;63.16;100877.30;108036;1254;60298;-64
2023/03/13 05:14:18;;;;;;;;;;;;;;;0.25;63.07;100880.60;108030;1254;74254;-63
2023/03/13 05:16:55;;;;;;;;;;;;;;;0.35;62.92;100879.45;108097;1254;73074;-63
2023/03/13 05:19:49;;;;;;;;;;;;;;;0.45;62.74;100881.70;108039;1254;72835;-64
2023/03/13 05:22:30;;;;;;;;;;;;;;;0.56;62.46;100885.30;107890;1256;61686;-63
2023/03/13 05:25:17;;;;;;;;;;;;;;;0.67;62.18;100887.29;108030;1254;61147;-63
2023/03/13 05:28:16;;;;;;;;;;;;;;;0.79;62.00;100884.08;107962;1254;74850;-65
2023/03/13 05:30:45;;;;;;;;;;;;;;;0.89;61.70;100887.63;92934;1254;20002836;-64
2023/03/13 05:33:38;;;;;;;;;;;;;;;1.01;61.44;100883.55;107859;1257;75763;-65
2023/03/13 05:36:32;;;;;;;;;;;;;;;1.13;61.06;100890.93;108021;1254;72671;-63
2023/03/13 05:39:16;;;;;;;;;;;;;;;1.24;60.64;100896.45;107879;1259;72089;-64
2023/03/13 05:41:58;;;;;;;;;;;;;;;1.33;60.47;100899.63;107896;1253;61177;-63
2023/03/13 05:45:04;;;;;;;;;;;;;;;1.46;60.27;100898.41;107732;1254;61324;-64
2023/03/13 05:47:34;;;;;;;;;;;;;;;1.57;59.88;100907.63;108072;1254;73819;-64
2023/03/13 05:50:31;;;;;;;;;;;;;;;1.69;59.27;100915.48;107504;1254;72237;-63
2023/03/13 05:53:36;;;;;;;;;;;;;;;1.82;58.80;100914.20;107608;1260;71117;-63
2023/03/13 05:56:30;;;;;;;;;;;;;;;1.95;58.64;100916.08;108048;1254;61269;-63
2023/03/13 05:59:09;;;;;;;;;;;;;;;2.07;58.08;100921.56;108016;1254;61229;-64
2023/03/13 06:01:56;;;;;;;;;;;;;;;2.20;57.66;100921.16;108100;1254;75492;-63
2023/03/13 06:04:30;;;;;;;;;;;;;;;2.31;57.09;100919.13;108117;1254;73978;-63
2023/03/13 06:06:59;;;;;;;;;;;;;;;2.43;56.90;100920.63;108120;1254;73818;-63
2023/03/13 06:09:32;;;;;;;;;;;;;;;2.56;56.40;100924.70;108120;1254;61225;-62
2023/03/13 06:12:01;;;;;;;;;;;;;;;2.66;56.02;100920.27;107979;1254;61138;-63
2023/03/13 06:14:30;;;;;;;;;;;;;;;2.74;55.42;100925.73;108100;1254;73853;-63
2023/03/13 06:17:25;;;;;;;;;;;;;;;2.81;54.69;100922.71;108181;1254;73831;-63
2023/03/13 06:19:53;;;;;;;;;;;;;;;2.89;54.56;100922.98;108136;1254;72870;-63
2023/03/13 06:22:23;;;;;;;;;;;;;;;2.99;54.47;100922.41;108057;1255;61183;-64
2023/03/13 06:24:52;;;;;;;;;;;;;;;3.07;54.16;100922.73;108099;1254;61436;-62
2023/03/13 06:27:20;;;;;;;;;;;;;;;3.13;53.78;100925.30;108194;1254;72634;-63
2023/03/13 06:29:49;;;;;;;;;;;;;;;3.17;53.64;100931.70;108128;1254;73352;-63
2023/03/13 06:32:17;;;;;;;;;;;;;;;3.19;53.48;100932.64;108084;1255;72603;-64
2023/03/13 06:34:46;;;;;;;;;;;;;;;3.21;53.25;100934.91;108148;1254;61420;-64
2023/03/13 06:37:15;;;;;;;;;;;;;;;3.23;53.13;100940.31;108146;1254;61234;-63
2023/03/13 06:39:44;;;;;;;;;;;;;;;3.29;53.11;100943.09;108078;1257;74535;-63
2023/03/13 06:42:12;;;;;;;;;;;;;;;3.39;52.98;100940.08;108099;1254;73689;-63
2023/03/13 06:44:40;;;;;;;;;;;;;;;3.52;52.96;100938.71;108139;1254;74224;-63
2023/03/13 06:47:09;;;;;;;;;;;;;;;3.64;52.37;100943.09;108102;1254;61218;-64
2023/03/13 06:49:38;;;;;;;;;;;;;;;3.78;52.18;100945.20;108091;1254;61109;-62
2023/03/13 06:52:11;;;;;;;;;;;;;;;3.93;51.84;100949.55;108121;1254;75856;-63
2023/03/13 06:54:40;;;;;;;;;;;;;;;4.07;51.29;100950.38;108201;1254;73818;-63
2023/03/13 06:57:08;;;;;;;;;;;;;;;4.19;50.61;100952.40;108147;1256;72115;-63
2023/03/13 06:59:38;;;;;;;;;;;;;;;4.31;50.09;100954.49;108058;1257;60457;-64
2023/03/13 07:02:07;;;;;;;;;;;;;;;4.40;49.67;100949.35;108174;1254;61250;-63
2023/03/13 07:04:38;;;;;;;;;;;;;;;4.53;49.83;100954.52;108159;1254;73652;-64
2023/03/13 07:07:07;;;;;;;;;;;;;;;4.66;49.50;100956.95;108172;1254;72327;-63
2023/03/13 07:09:46;;;;;;;;;;;;;;;4.79;49.10;100960.91;107997;1254;72713;-64
2023/03/13 07:12:16;;;;;;;;;;;;;;;4.91;48.72;100964.52;108152;1254;61442;-64
2023/03/13 07:14:46;;;;;;;;;;;;;;;4.95;48.08;100970.13;108160;1254;61132;-63
2023/03/13 07:17:15;;;;;;;;;;;;;;;5.00;48.30;100969.71;108179;1253;74679;-64
2023/03/13 07:19:43;;;;;;;;;;;;;;;5.08;48.53;100964.13;108232;1254;71773;-64
2023/03/13 07:22:12;;;;;;;;;;;;;;;5.21;48.70;100964.32;108179;1254;71815;-65
2023/03/13 07:24:40;;;;;;;;;;;;;;;5.35;48.37;100966.05;108053;1254;61521;-64
2023/03/13 07:27:08;;;;;;;;;;;;;;;5.47;47.72;100961.16;108087;1254;60118;-64
2023/03/13 07:29:37;;;;;;;;;;;;;;;5.58;47.92;100957.80;108118;1254;73416;-64
2023/03/13 07:32:05;;;;;;;;;;;;;;;5.75;47.76;100958.54;108119;1256;71818;-64
2023/03/13 07:34:34;;;;;;;;;;;;;;;5.99;47.40;100962.75;108082;1254;71602;-64
2023/03/13 07:37:03;;;;;;;;;;;;;;;6.01;47.09;100960.02;108073;1254;61148;-64
2023/03/13 07:39:32;;;;;;;;;;;;;;;6.01;47.12;100963.09;108218;1254;61009;-64
2023/03/13 07:42:00;;;;;;;;;;;;;;;6.18;47.17;100957.66;108159;1254;73964;-64
2023/03/13 07:44:29;;;;;;;;;;;;;;;6.25;46.89;100954.57;108141;1254;73988;-65
2023/03/13 07:47:00;;;;;;;;;;;;;;;6.29;47.31;100955.75;108150;1254;72442;-64
2023/03/13 07:49:28;;;;;;;;;;;;;;;6.26;47.59;100957.41;108090;1254;61093;-64
2023/03/13 07:51:57;;;;;;;;;;;;;;;6.33;47.80;100955.67;108150;1254;61145;-64
2023/03/13 07:54:33;;;;;;;;;;;;;;;6.44;47.49;100954.75;108096;1254;74021;-63
2023/03/13 07:57:02;;;;;;;;;;;;;;;6.49;47.41;100957.64;108197;1254;73117;-63
2023/03/13 07:59:30;;;;;;;;;;;;;;;6.61;47.87;100951.99;108192;1254;73092;-62
2023/03/13 08:02:07;;;;;;;;;;;;;;;6.76;47.57;100943.98;108200;1254;61269;-64
2023/03/13 08:04:52;;;;;;;;;;;;;;;6.85;47.07;100948.38;108119;1255;61006;-63
2023/03/13 08:07:43;;;;;;;;;;;;;;;6.92;46.88;100947.65;108133;1258;75955;-64
2023/03/13 08:10:11;;;;;;;;;;;;;;;6.92;46.23;100942.30;108095;1254;71833;-64
2023/03/13 08:12:40;;;;;;;;;;;;;;;6.94;46.16;100945.45;108124;1254;71986;-63
2023/03/13 08:15:09;;;;;;;;;;;;;;;7.01;45.68;100935.86;108067;1255;61128;-63
2023/03/13 08:17:38;;;;;;;;;;;;;;;7.06;45.56;100935.83;108226;1254;59883;-63
2023/03/13 08:20:08;;;;;;;;;;;;;;;7.13;45.09;100938.88;108122;1254;75420;-64
2023/03/13 08:22:38;;;;;;;;;;;;;;;7.19;45.08;100941.35;108120;1253;72906;-63
2023/03/13 08:25:06;;;;;;;;;;;;;;;7.27;44.76;100942.59;108116;1257;71958;-64
2023/03/13 08:27:35;;;;;;;;;;;;;;;7.37;44.42;100948.05;108119;1254;60568;-64
2023/03/13 08:30:05;;;;;;;;;;;;;;;7.47;44.50;100950.31;108115;1254;61247;-64
2023/03/13 08:32:38;;;;;;;;;;;;;;;7.57;43.89;100946.78;108093;1254;73745;-64
2023/03/13 08:35:07;;;;;;;;;;;;;;;7.60;43.09;100946.45;108115;1254;73518;-64
2023/03/13 08:37:35;;;;;;;;;;;;;;;7.60;43.44;100944.32;108133;1254;73983;-64
2023/03/13 08:40:12;;;;;;;;;;;;;;;7.62;42.77;100941.50;108070;1254;61083;-64
2023/03/13 08:43:01;;;;;;;;;;;;;;;7.63;42.73;100950.29;108107;1253;61089;-64
2023/03/13 08:45:55;;;;;;;;;;;;;;;7.71;42.56;100952.69;108094;1254;73851;-64
2023/03/13 08:48:24;;;;;;;;;;;;;;;7.80;42.30;100951.05;108103;1254;72952;-63
2023/03/13 08:51:05;;;;;;;;;;;;;;;7.90;41.93;100948.77;108081;1254;71901;-63
2023/03/13 08:53:35;;;;;;;;;;;;;;;7.96;41.51;100947.39;108088;1254;61051;-64
2023/03/13 08:56:06;;;;;;;;;;;;;;;8.12;40.92;100941.40;108087;1256;61204;-65
2023/03/13 08:58:35;;;;;;;;;;;;;;;8.15;40.28;100943.64;108086;1254;72817;-64
2023/03/13 09:01:04;;;;;;;;;;;;;;;8.15;40.40;100948.84;108145;1254;73542;-64
2023/03/13 09:03:34;;;;;;;;;;;;;;;8.25;40.57;100949.16;108157;1257;72889;-64
2023/03/13 09:06:02;;;;;;;;;;;;;;;8.37;40.26;100948.38;108162;1254;61222;-64
2023/03/13 09:08:38;;;;;;;;;;;;;;;8.48;40.56;100953.80;108189;1254;61568;-64
2023/03/13 09:11:15;;;;;;;;;;;;;;;8.63;40.86;100949.39;108109;1254;76199;-64
2023/03/13 09:14:30;;;;;;;;;;;;;;;8.74;39.52;100950.89;108090;1254;73507;-64
2023/03/13 09:17:00;;;;;;;;;;;;;;;8.68;39.92;100944.91;108125;1253;72385;-63
2023/03/13 09:19:28;;;;;;;;;;;;;;;8.75;39.99;100942.08;108086;1258;61109;-64
2023/03/13 09:21:57;;;;;;;;;;;;;;;8.85;39.69;100941.91;108196;1254;59248;-64
2023/03/13 09:24:25;;;;;;;;;;;;;;;8.95;39.70;100936.83;108156;1254;74340;-64
2023/03/13 09:26:54;;;;;;;;;;;;;;;9.01;39.44;100938.64;108156;1254;71305;-63
2023/03/13 09:29:28;;;;;;;;;;;;;;;9.04;39.65;100934.23;108093;1254;72053;-65
2023/03/13 09:31:56;;;;;;;;;;;;;;;9.11;39.36;100930.31;108144;1254;61230;-63
2023/03/13 09:34:25;;;;;;;;;;;;;;;9.16;39.54;100927.54;93011;1258;10004004;-65
2023/03/13 09:36:54;;;;;;;;;;;;;;;9.22;39.04;100933.11;100367;1254;10001928;-67
2023/03/13 09:39:26;;;;;;;;;;;;;;;9.21;38.47;100931.03;107902;1254;61330;-62
2023/03/13 09:42:08;;;;;;;;;;;;;;;9.20;38.57;100929.84;107949;1254;73755;-65
2023/03/13 09:44:57;;;;;;;;;;;;;;;9.19;38.60;100929.71;107888;1257;71013;-63
2023/03/13 09:47:29;;;;;;;;;;;;;;;9.21;39.55;100926.34;107875;1256;74036;-63
2023/03/13 09:50:02;;;;;;;;;;;;;;;9.28;39.07;100921.99;108036;1255;61125;-62
2023/03/13 09:52:38;;;;;;;;;;;;;;;9.44;38.80;100913.95;108053;1254;59982;-63
2023/03/13 09:55:20;;;;;;;;;;;;;;;9.51;38.74;100913.11;100487;1254;10001316;-64
2023/03/13 09:57:48;;;;;;;;;;;;;;;9.58;38.88;100915.36;107900;1254;72159;-63
2023/03/13 10:00:26;;;;;;;;;;;;;;;9.56;39.59;100905.63;107867;1255;61239;-63
2023/03/13 10:03:05;;;;;;;;;;;;;;;9.63;39.37;100902.92;107874;1254;61241;-64
2023/03/13 10:05:35;;;;;;;;;;;;;;;9.70;39.37;100902.08;107818;1257;75864;-63
2023/03/13 10:08:12;;;;;;;;;;;;;;;9.76;39.26;100899.29;107754;1260;72499;-63
2023/03/13 10:10:51;;;;;;;;;;;;;;;9.82;39.15;100898.24;107929;1258;73777;-63
2023/03/13 10:13:38;;;;;;;;;;;;;;;9.84;38.90;100893.71;107950;1254;61208;-63
2023/03/13 10:16:08;;;;;;;;;;;;;;;9.86;38.61;100894.47;108066;1255;61733;-64
2023/03/13 10:18:39;;;;;;;;;;;;;;;9.78;37.63;100886.34;108007;1259;74111;-64
2023/03/13 10:21:18;;;;;;;;;;;;;;;9.73;38.45;100884.34;92951;1253;10002124;-63
2023/03/13 10:23:48;;;;;;;;;;;;;;;9.84;38.76;100885.15;107936;1254;75853;-64
2023/03/13 10:26:18;;;;;;;;;;;;;;;9.95;38.36;100878.48;107939;1254;73450;-63
2023/03/13 10:28:49;;;;;;;;;;;;;;;10.03;37.76;100872.47;107906;1254;73898;-64
2023/03/13 10:31:23;;;;;;;;;;;;;;;10.03;37.76;100862.61;107937;1254;61221;-63
2023/03/13 10:33:52;;;;;;;;;;;;;;;9.97;37.49;100862.56;107975;1254;60262;-64
2023/03/13 10:36:24;;;;;;;;;;;;;;;9.83;37.40;100859.21;107947;1254;75647;-66
2023/03/13 10:38:53;;;;;;;;;;;;;;;9.67;37.48;100861.68;107874;1257;72817;-64
2023/03/13 10:41:29;;;;;;;;;;;;;;;9.55;37.64;100860.11;107921;1254;72463;-63
2023/03/13 10:44:02;;;;;;;;;;;;;;;9.47;37.90;100858.87;109265;1254;59732;-64
2023/03/13 10:46:32;;;;;;;;;;;;;;;9.42;38.37;100859.63;108391;1254;61231;-63
2023/03/13 10:49:03;;;;;;;;;;;;;;;9.38;38.70;100855.31;108038;1254;74870;-64
2023/03/13 10:51:38;;;;;;;;;;;;;;;9.36;38.65;100853.77;108005;1254;72425;-64
2023/03/13 10:54:36;;;;;;;;;;;;;;;9.31;38.63;100853.54;107951;1256;72796;-63
2023/03/13 10:57:39;;;;;;;;;;;;;;;9.32;38.97;100848.91;107922;1258;61112;-65
2023/03/13 11:00:23;;;;;;;;;;;;;;;9.28;39.19;100848.67;107477;1264;60829;-65
2023/03/13 11:02:51;;;;;;;;;;;;;;;9.24;39.15;100844.94;108012;1254;74940;-64
2023/03/13 11:05:29;;;;;;;;;;;;;;;9.26;39.56;100842.48;107895;1254;73998;-64
2023/03/13 11:07:57;;;;;;;;;;;;;;;9.32;39.57;100829.55;107987;1254;71879;-63
2023/03/13 11:10:35;;;;;;;;;;;;;;;9.33;39.42;100828.13;109216;1254;60313;-63
2023/03/13 11:13:04;;;;;;;;;;;;;;;9.30;39.40;100820.46;108056;1255;61126;-63
2023/03/13 11:15:45;;;;;;;;;;;;;;;9.31;39.43;100814.23;107932;1254;73816;-63
2023/03/13 11:18:15;;;;;;;;;;;;;;;9.35;39.80;100810.31;107993;1254;72995;-65
2023/03/13 11:20:44;;;;;;;;;;;;;;;9.42;39.50;100804.66;107974;1254;71746;-64
2023/03/13 11:23:25;;;;;;;;;;;;;;;9.38;40.06;100804.88;108081;1253;61191;-64
2023/03/13 11:26:12;;;;;;;;;;;;;;;9.49;40.37;100800.72;107811;1259;61251;-65
2023/03/13 11:28:47;;;;;;;;;;;;;;;9.64;40.21;100795.18;107897;1257;73677;-67
2023/03/13 11:31:21;;;;;;;;;;;;;;;9.75;40.00;100792.89;107872;1256;73232;-64
2023/03/13 11:33:59;;;;;;;;;;;;;;;9.85;39.99;100790.51;107969;1254;73232;-63
2023/03/13 11:36:35;;;;;;;;;;;;;;;9.92;39.59;100780.20;108076;1254;61975;-64
2023/03/13 11:39:06;;;;;;;;;;;;;;;9.96;38.84;100779.13;107897;1255;61358;-66
2023/03/13 11:41:43;;;;;;;;;;;;;;;9.96;38.89;100773.79;107902;1257;75844;-64
2023/03/13 11:44:16;;;;;;;;;;;;;;;10.00;39.01;100773.69;107944;1254;70534;-63
2023/03/13 11:47:03;;;;;;;;;;;;;;;10.10;38.99;100770.93;107826;1259;73697;-63
2023/03/13 11:49:40;;;;;;;;;;;;;;;10.21;38.44;100764.23;107974;1254;61113;-62
2023/03/13 11:52:15;;;;;;;;;;;;;;;10.28;37.49;100758.85;107970;1254;60924;-64
2023/03/13 11:54:46;;;;;;;;;;;;;;;10.29;37.45;100758.86;108059;1254;75240;-65
2023/03/13 11:57:14;;;;;;;;;;;;;;;10.29;37.20;100757.94;107957;1254;71054;-65
2023/03/13 11:59:49;;;;;;;;;;;;;;;10.35;36.80;100760.35;107943;1254;73300;-62
2023/03/13 12:02:24;;;;;;;;;;;;;;;10.45;36.58;100755.93;107936;1254;61228;-63
2023/03/13 12:05:06;;;;;;;;;;;;;;;10.41;36.18;100756.33;107951;1254;61217;-63
2023/03/13 12:07:51;;;;;;;;;;;;;;;10.40;36.54;100755.94;108043;1254;73922;-63
2023/03/13 12:10:27;;;;;;;;;;;;;;;10.46;36.69;100757.77;107951;1254;72814;-63
2023/03/13 12:13:13;;;;;;;;;;;;;;;10.42;36.71;100753.77;107999;1254;73627;-63
2023/03/13 12:15:42;;;;;;;;;;;;;;;10.45;37.16;100748.41;108154;1254;60355;-62
2023/03/13 12:18:16;;;;;;;;;;;;;;;10.61;37.48;100746.91;108105;1254;61214;-63
2023/03/13 12:21:03;;;;;;;;;;;;;;;10.79;37.72;100744.04;108110;1254;75368;-63
2023/03/13 12:23:38;;;;;;;;;;;;;;;10.92;37.76;100741.20;108088;1254;73698;-63
2023/03/13 12:26:09;;;;;;;;;;;;;;;11.04;37.73;100732.05;108065;1259;73609;-63
2023/03/13 12:28:44;;;;;;;;;;;;;;;11.17;37.56;100729.00;107946;1254;61302;-63
2023/03/13 12:31:12;;;;;;;;;;;;;;;11.26;37.03;100725.59;108038;1254;61234;-63
2023/03/13 12:33:42;;;;;;;;;;;;;;;11.27;36.73;100731.80;108097;1254;75432;-63
2023/03/13 12:36:18;;;;;;;;;;;;;;;11.30;37.12;100738.92;108038;1257;73460;-62
2023/03/13 12:38:48;;;;;;;;;;;;;;;11.36;36.72;100735.39;107996;1257;72102;-62
2023/03/13 12:41:24;;;;;;;;;;;;;;;11.29;36.62;100738.59;108032;1255;61280;-63
2023/03/13 12:43:53;;;;;;;;;;;;;;;11.25;36.37;100737.39;108097;1254;61163;-65
2023/03/13 12:46:46;;;;;;;;;;;;;;;11.20;36.77;100737.95;108177;1254;75873;-63
2023/03/13 12:49:14;;;;;;;;;;;;;;;11.20;37.04;100736.72;108079;1254;73999;-66
2023/03/13 12:51:51;;;;;;;;;;;;;;;11.22;37.26;100734.96;108081;1254;74006;-63
2023/03/13 12:54:30;;;;;;;;;;;;;;;11.27;36.94;100721.95;108178;1254;61717;-63
2023/03/13 12:57:11;;;;;;;;;;;;;;;11.27;36.25;100725.86;108039;1258;61196;-64
2023/03/13 12:59:40;;;;;;;;;;;;;;;11.22;35.81;100731.02;108127;1254;75622;-64
2023/03/13 13:02:15;;;;;;;;;;;;;;;11.09;35.50;100734.23;108147;1254;72578;-63
2023/03/13 13:04:44;;;;;;;;;;;;;;;10.97;35.88;100733.13;108163;1254;71999;-65
2023/03/13 13:07:23;;;;;;;;;;;;;;;10.96;36.18;100733.39;108120;1254;61228;-63
2023/03/13 13:09:59;;;;;;;;;;;;;;;10.98;36.63;100731.25;108123;1254;61073;-64
2023/03/13 13:12:29;;;;;;;;;;;;;;;11.03;36.68;100728.95;108208;1257;74295;-63